sensor_id;sensor_type;location;lat;lon;timestamp;temperature;humidity
68217;DHT22;55037;52.354;4.992;2022-12-07T00:01:26;7.10;87.40
68217;DHT22;55037;52.354;4.992;2022-12-07T00:03:55;7.10;87.00
68217;DHT22;55037;52.354;4.992;2022-12-07T00:06:27;7.00;86.90
68217;DHT22;55037;52.354;4.992;2022-12-07T00:08:55;7.00;86.90
68217;DHT22;55037;52.354;4.992;2022-12-07T00:11:23;6.90;87.00
68217;DHT22;55037;52.354;4.992;2022-12-07T00:13:55;6.80;88.30
68217;DHT22;55037;52.354;4.992;2022-12-07T00:16:26;6.70;87.70
68217;DHT22;55037;52.354;4.992;2022-12-07T00:18:54;6.70;88.10
68217;DHT22;55037;52.354;4.992;2022-12-07T00:21:24;6.70;88.30
68217;DHT22;55037;52.354;4.992;2022-12-07T00:23:53;6.80;88.20
68217;DHT22;55037;52.354;4.992;2022-12-07T00:26:26;6.90;88.00
68217;DHT22;55037;52.354;4.992;2022-12-07T00:28:56;6.90;87.70
68217;DHT22;55037;52.354;4.992;2022-12-07T00:31:27;6.90;87.40
68217;DHT22;55037;52.354;4.992;2022-12-07T00:33:55;6.90;87.10
68217;DHT22;55037;52.354;4.992;2022-12-07T00:36:24;6.80;86.80
68217;DHT22;55037;52.354;4.992;2022-12-07T00:38:54;6.80;86.30
68217;DHT22;55037;52.354;4.992;2022-12-07T00:41:24;6.80;87.10
68217;DHT22;55037;52.354;4.992;2022-12-07T00:43:52;6.80;87.20
68217;DHT22;55037;52.354;4.992;2022-12-07T00:46:20;6.70;86.90
68217;DHT22;55037;52.354;4.992;2022-12-07T00:48:49;6.70;87.00
68217;DHT22;55037;52.354;4.992;2022-12-07T00:51:18;6.60;86.90
68217;DHT22;55037;52.354;4.992;2022-12-07T00:53:45;6.60;87.20
68217;DHT22;55037;52.354;4.992;2022-12-07T00:58:43;6.70;86.30
68217;DHT22;55037;52.354;4.992;2022-12-07T01:01:10;6.70;87.00
68217;DHT22;55037;52.354;4.992;2022-12-07T01:03:38;6.80;87.60
68217;DHT22;55037;52.354;4.992;2022-12-07T01:06:06;6.80;86.50
68217;DHT22;55037;52.354;4.992;2022-12-07T01:08:33;7.40;86.70
68217;DHT22;55037;52.354;4.992;2022-12-07T01:11:03;6.70;86.30
68217;DHT22;55037;52.354;4.992;2022-12-07T01:13:31;6.60;86.40
68217;DHT22;55037;52.354;4.992;2022-12-07T01:16:00;6.60;86.60
68217;DHT22;55037;52.354;4.992;2022-12-07T01:18:29;6.60;87.20
68217;DHT22;55037;52.354;4.992;2022-12-07T01:21:07;6.70;87.50
68217;DHT22;55037;52.354;4.992;2022-12-07T01:23:35;6.80;87.60
68217;DHT22;55037;52.354;4.992;2022-12-07T01:26:05;6.80;87.90
68217;DHT22;55037;52.354;4.992;2022-12-07T01:28:33;6.90;87.90
68217;DHT22;55037;52.354;4.992;2022-12-07T01:31:10;6.80;88.70
68217;DHT22;55037;52.354;4.992;2022-12-07T01:33:47;6.90;88.80
68217;DHT22;55037;52.354;4.992;2022-12-07T01:36:30;6.80;89.00
68217;DHT22;55037;52.354;4.992;2022-12-07T01:39:00;6.90;89.20
68217;DHT22;55037;52.354;4.992;2022-12-07T01:41:30;6.90;89.10
68217;DHT22;55037;52.354;4.992;2022-12-07T01:46:53;6.90;89.00
68217;DHT22;55037;52.354;4.992;2022-12-07T01:49:42;6.80;88.70
68217;DHT22;55037;52.354;4.992;2022-12-07T01:52:15;6.80;88.90
68217;DHT22;55037;52.354;4.992;2022-12-07T01:54:46;6.80;88.80
68217;DHT22;55037;52.354;4.992;2022-12-07T01:57:15;6.70;89.10
68217;DHT22;55037;52.354;4.992;2022-12-07T01:59:44;6.70;89.10
68217;DHT22;55037;52.354;4.992;2022-12-07T02:02:20;6.60;89.00
68217;DHT22;55037;52.354;4.992;2022-12-07T02:04:52;6.50;88.90
68217;DHT22;55037;52.354;4.992;2022-12-07T02:07:21;6.50;89.10
68217;DHT22;55037;52.354;4.992;2022-12-07T02:09:48;6.40;89.40
68217;DHT22;55037;52.354;4.992;2022-12-07T02:12:16;6.30;89.80
68217;DHT22;55037;52.354;4.992;2022-12-07T02:14:43;6.30;90.00
68217;DHT22;55037;52.354;4.992;2022-12-07T02:20:07;6.20;90.00
68217;DHT22;55037;52.354;4.992;2022-12-07T02:25:33;6.30;90.30
68217;DHT22;55037;52.354;4.992;2022-12-07T02:30:44;6.50;90.50
68217;DHT22;55037;52.354;4.992;2022-12-07T02:33:52;6.60;90.40
68217;DHT22;55037;52.354;4.992;2022-12-07T02:36:28;6.50;90.20
68217;DHT22;55037;52.354;4.992;2022-12-07T02:41:43;6.40;90.10
68217;DHT22;55037;52.354;4.992;2022-12-07T02:44:13;6.20;90.10
68217;DHT22;55037;52.354;4.992;2022-12-07T02:46:44;6.20;90.30
68217;DHT22;55037;52.354;4.992;2022-12-07T02:49:14;6.10;90.50
68217;DHT22;55037;52.354;4.992;2022-12-07T02:51:43;6.00;90.60
68217;DHT22;55037;52.354;4.992;2022-12-07T02:54:15;5.90;90.70
68217;DHT22;55037;52.354;4.992;2022-12-07T02:56:56;5.90;90.80
68217;DHT22;55037;52.354;4.992;2022-12-07T03:07:25;5.70;91.20
68217;DHT22;55037;52.354;4.992;2022-12-07T03:18:25;5.90;91.40
68217;DHT22;55037;52.354;4.992;2022-12-07T03:20:56;6.00;91.40
68217;DHT22;55037;52.354;4.992;2022-12-07T03:23:25;6.00;91.30
68217;DHT22;55037;52.354;4.992;2022-12-07T03:25:57;6.10;91.20
68217;DHT22;55037;52.354;4.992;2022-12-07T03:28:31;6.10;91.10
68217;DHT22;55037;52.354;4.992;2022-12-07T03:31:18;6.20;91.00
68217;DHT22;55037;52.354;4.992;2022-12-07T03:34:16;6.30;90.80
68217;DHT22;55037;52.354;4.992;2022-12-07T03:36:53;6.40;90.60
68217;DHT22;55037;52.354;4.992;2022-12-07T03:39:39;6.40;90.30
68217;DHT22;55037;52.354;4.992;2022-12-07T03:42:09;6.40;90.10
68217;DHT22;55037;52.354;4.992;2022-12-07T03:44:37;6.30;90.10
68217;DHT22;55037;52.354;4.992;2022-12-07T03:50:02;6.20;90.20
68217;DHT22;55037;52.354;4.992;2022-12-07T03:52:38;6.10;90.20
68217;DHT22;55037;52.354;4.992;2022-12-07T03:55:18;6.00;90.40
68217;DHT22;55037;52.354;4.992;2022-12-07T03:57:50;6.00;90.50
68217;DHT22;55037;52.354;4.992;2022-12-07T04:00:19;6.00;90.40
68217;DHT22;55037;52.354;4.992;2022-12-07T04:02:46;6.20;90.80
68217;DHT22;55037;52.354;4.992;2022-12-07T04:05:14;6.20;91.10
68217;DHT22;55037;52.354;4.992;2022-12-07T04:07:41;6.30;90.70
68217;DHT22;55037;52.354;4.992;2022-12-07T04:10:09;6.30;90.40
68217;DHT22;55037;52.354;4.992;2022-12-07T04:12:39;6.20;90.20
68217;DHT22;55037;52.354;4.992;2022-12-07T04:15:07;6.00;90.20
68217;DHT22;55037;52.354;4.992;2022-12-07T04:17:34;5.90;90.20
68217;DHT22;55037;52.354;4.992;2022-12-07T04:20:03;5.80;90.30
68217;DHT22;55037;52.354;4.992;2022-12-07T04:22:31;5.80;90.50
68217;DHT22;55037;52.354;4.992;2022-12-07T04:24:58;5.80;90.70
68217;DHT22;55037;52.354;4.992;2022-12-07T04:27:26;5.70;90.70
68217;DHT22;55037;52.354;4.992;2022-12-07T04:29:53;5.70;90.70
68217;DHT22;55037;52.354;4.992;2022-12-07T04:32:20;5.70;90.70
68217;DHT22;55037;52.354;4.992;2022-12-07T04:34:48;5.70;90.70
68217;DHT22;55037;52.354;4.992;2022-12-07T04:37:22;5.70;90.60
68217;DHT22;55037;52.354;4.992;2022-12-07T04:39:49;5.70;90.60
68217;DHT22;55037;52.354;4.992;2022-12-07T04:42:16;5.70;90.50
68217;DHT22;55037;52.354;4.992;2022-12-07T04:44:43;5.70;90.40
68217;DHT22;55037;52.354;4.992;2022-12-07T04:47:11;5.70;90.30
68217;DHT22;55037;52.354;4.992;2022-12-07T04:49:38;5.70;90.30
68217;DHT22;55037;52.354;4.992;2022-12-07T04:52:06;5.70;90.20
68217;DHT22;55037;52.354;4.992;2022-12-07T04:54:33;5.70;90.30
68217;DHT22;55037;52.354;4.992;2022-12-07T04:57:00;5.60;90.30
68217;DHT22;55037;52.354;4.992;2022-12-07T04:59:28;5.60;90.30
68217;DHT22;55037;52.354;4.992;2022-12-07T05:01:55;5.60;90.50
68217;DHT22;55037;52.354;4.992;2022-12-07T05:04:22;5.60;90.50
68217;DHT22;55037;52.354;4.992;2022-12-07T05:06:49;5.60;90.50
68217;DHT22;55037;52.354;4.992;2022-12-07T05:09:17;5.60;90.60
68217;DHT22;55037;52.354;4.992;2022-12-07T05:11:44;5.70;90.50
68217;DHT22;55037;52.354;4.992;2022-12-07T05:14:17;5.70;90.30
68217;DHT22;55037;52.354;4.992;2022-12-07T05:16:46;5.70;90.10
68217;DHT22;55037;52.354;4.992;2022-12-07T05:19:15;5.70;89.30
68217;DHT22;55037;52.354;4.992;2022-12-07T05:21:42;5.70;89.90
68217;DHT22;55037;52.354;4.992;2022-12-07T05:24:12;5.70;89.70
68217;DHT22;55037;52.354;4.992;2022-12-07T05:26:40;5.70;90.00
68217;DHT22;55037;52.354;4.992;2022-12-07T05:29:07;8.00;90.60
68217;DHT22;55037;52.354;4.992;2022-12-07T05:31:37;5.80;89.80
68217;DHT22;55037;52.354;4.992;2022-12-07T05:34:04;5.90;89.30
68217;DHT22;55037;52.354;4.992;2022-12-07T05:36:31;5.90;89.00
68217;DHT22;55037;52.354;4.992;2022-12-07T05:38:59;5.90;88.50
68217;DHT22;55037;52.354;4.992;2022-12-07T05:41:26;5.90;89.40
68217;DHT22;55037;52.354;4.992;2022-12-07T05:44:12;6.00;89.30
68217;DHT22;55037;52.354;4.992;2022-12-07T05:46:39;6.10;88.80
68217;DHT22;55037;52.354;4.992;2022-12-07T05:49:07;6.10;88.30
68217;DHT22;55037;52.354;4.992;2022-12-07T05:51:34;6.00;88.00
68217;DHT22;55037;52.354;4.992;2022-12-07T05:54:01;5.90;87.80
68217;DHT22;55037;52.354;4.992;2022-12-07T05:56:28;5.90;88.00
68217;DHT22;55037;52.354;4.992;2022-12-07T05:58:56;5.80;88.00
68217;DHT22;55037;52.354;4.992;2022-12-07T06:01:41;5.70;88.20
68217;DHT22;55037;52.354;4.992;2022-12-07T06:04:09;5.70;88.50
68217;DHT22;55037;52.354;4.992;2022-12-07T06:06:36;5.70;88.80
68217;DHT22;55037;52.354;4.992;2022-12-07T06:09:04;5.80;88.50
68217;DHT22;55037;52.354;4.992;2022-12-07T06:11:31;5.80;88.30
68217;DHT22;55037;52.354;4.992;2022-12-07T06:14:17;5.90;88.30
68217;DHT22;55037;52.354;4.992;2022-12-07T06:16:44;6.00;88.40
68217;DHT22;55037;52.354;4.992;2022-12-07T06:19:11;6.00;88.20
68217;DHT22;55037;52.354;4.992;2022-12-07T06:21:39;6.10;88.00
68217;DHT22;55037;52.354;4.992;2022-12-07T06:24:06;6.20;87.90
68217;DHT22;55037;52.354;4.992;2022-12-07T06:26:33;6.20;88.00
68217;DHT22;55037;52.354;4.992;2022-12-07T06:29:01;6.30;88.10
68217;DHT22;55037;52.354;4.992;2022-12-07T06:31:28;6.30;88.30
68217;DHT22;55037;52.354;4.992;2022-12-07T06:34:04;6.30;88.30
68217;DHT22;55037;52.354;4.992;2022-12-07T06:36:32;6.30;88.00
68217;DHT22;55037;52.354;4.992;2022-12-07T06:38:59;6.30;87.50
68217;DHT22;55037;52.354;4.992;2022-12-07T06:41:26;6.20;87.10
68217;DHT22;55037;52.354;4.992;2022-12-07T06:43:53;6.10;87.10
68217;DHT22;55037;52.354;4.992;2022-12-07T06:46:23;6.00;87.20
68217;DHT22;55037;52.354;4.992;2022-12-07T06:48:50;6.00;87.40
68217;DHT22;55037;52.354;4.992;2022-12-07T06:51:18;5.90;87.50
68217;DHT22;55037;52.354;4.992;2022-12-07T06:53:45;5.80;87.50
68217;DHT22;55037;52.354;4.992;2022-12-07T06:56:13;5.80;87.60
68217;DHT22;55037;52.354;4.992;2022-12-07T06:58:40;5.80;87.70
68217;DHT22;55037;52.354;4.992;2022-12-07T07:01:12;5.70;87.90
68217;DHT22;55037;52.354;4.992;2022-12-07T07:03:40;5.70;87.90
68217;DHT22;55037;52.354;4.992;2022-12-07T07:06:08;5.70;88.00
68217;DHT22;55037;52.354;4.992;2022-12-07T07:08:36;5.60;87.50
68217;DHT22;55037;52.354;4.992;2022-12-07T07:11:04;5.60;88.30
68217;DHT22;55037;52.354;4.992;2022-12-07T07:13:31;5.50;88.50
68217;DHT22;55037;52.354;4.992;2022-12-07T07:15:59;5.50;88.80
68217;DHT22;55037;52.354;4.992;2022-12-07T07:18:26;5.40;89.10
68217;DHT22;55037;52.354;4.992;2022-12-07T07:20:54;5.40;89.30
68217;DHT22;55037;52.354;4.992;2022-12-07T07:23:21;5.30;89.40
68217;DHT22;55037;52.354;4.992;2022-12-07T07:25:49;5.40;89.80
68217;DHT22;55037;52.354;4.992;2022-12-07T07:28:17;5.30;89.10
68217;DHT22;55037;52.354;4.992;2022-12-07T07:30:44;5.30;89.90
68217;DHT22;55037;52.354;4.992;2022-12-07T07:33:12;5.40;90.00
68217;DHT22;55037;52.354;4.992;2022-12-07T07:35:39;5.50;90.20
68217;DHT22;55037;52.354;4.992;2022-12-07T07:38:07;5.60;90.30
68217;DHT22;55037;52.354;4.992;2022-12-07T07:40:35;5.80;90.30
68217;DHT22;55037;52.354;4.992;2022-12-07T07:43:02;6.00;90.00
68217;DHT22;55037;52.354;4.992;2022-12-07T07:45:30;6.10;89.60
68217;DHT22;55037;52.354;4.992;2022-12-07T07:47:57;6.30;87.50
68217;DHT22;55037;52.354;4.992;2022-12-07T07:50:24;6.30;88.20
68217;DHT22;55037;52.354;4.992;2022-12-07T07:52:52;6.30;87.70
68217;DHT22;55037;52.354;4.992;2022-12-07T07:55:19;6.30;87.40
68217;DHT22;55037;52.354;4.992;2022-12-07T07:57:46;6.30;87.40
68217;DHT22;55037;52.354;4.992;2022-12-07T08:00:21;6.20;87.60
68217;DHT22;55037;52.354;4.992;2022-12-07T08:02:48;6.20;88.00
68217;DHT22;55037;52.354;4.992;2022-12-07T08:05:16;6.30;88.10
68217;DHT22;55037;52.354;4.992;2022-12-07T08:07:43;6.50;88.20
68217;DHT22;55037;52.354;4.992;2022-12-07T08:10:12;6.60;87.90
68217;DHT22;55037;52.354;4.992;2022-12-07T08:12:42;6.70;87.40
68217;DHT22;55037;52.354;4.992;2022-12-07T08:15:30;6.80;86.90
68217;DHT22;55037;52.354;4.992;2022-12-07T08:17:58;6.90;86.60
68217;DHT22;55037;52.354;4.992;2022-12-07T08:20:25;7.00;86.20
68217;DHT22;55037;52.354;4.992;2022-12-07T08:22:53;6.90;85.90
68217;DHT22;55037;52.354;4.992;2022-12-07T08:25:21;6.90;85.80
68217;DHT22;55037;52.354;4.992;2022-12-07T08:27:51;6.80;85.80
68217;DHT22;55037;52.354;4.992;2022-12-07T08:30:18;6.60;86.30
68217;DHT22;55037;52.354;4.992;2022-12-07T08:32:46;6.50;87.00
68217;DHT22;55037;52.354;4.992;2022-12-07T08:35:14;6.40;87.50
68217;DHT22;55037;52.354;4.992;2022-12-07T08:37:42;6.40;87.80
68217;DHT22;55037;52.354;4.992;2022-12-07T08:40:10;6.40;88.00
68217;DHT22;55037;52.354;4.992;2022-12-07T08:42:42;6.30;88.10
68217;DHT22;55037;52.354;4.992;2022-12-07T08:45:13;6.40;88.50
68217;DHT22;55037;52.354;4.992;2022-12-07T08:47:49;6.40;88.60
68217;DHT22;55037;52.354;4.992;2022-12-07T08:50:17;6.40;88.50
68217;DHT22;55037;52.354;4.992;2022-12-07T08:52:49;6.50;88.50
68217;DHT22;55037;52.354;4.992;2022-12-07T08:55:17;6.70;88.40
68217;DHT22;55037;52.354;4.992;2022-12-07T08:57:45;6.80;87.70
68217;DHT22;55037;52.354;4.992;2022-12-07T09:00:13;6.90;86.80
68217;DHT22;55037;52.354;4.992;2022-12-07T09:02:40;7.00;86.60
68217;DHT22;55037;52.354;4.992;2022-12-07T09:05:08;7.90;86.80
68217;DHT22;55037;52.354;4.992;2022-12-07T09:07:44;7.30;86.50
68217;DHT22;55037;52.354;4.992;2022-12-07T09:10:12;7.70;87.20
68217;DHT22;55037;52.354;4.992;2022-12-07T09:12:39;9.70;88.30
68217;DHT22;55037;52.354;4.992;2022-12-07T09:15:07;12.70;74.80
68217;DHT22;55037;52.354;4.992;2022-12-07T09:17:35;13.50;65.50
68217;DHT22;55037;52.354;4.992;2022-12-07T09:20:04;12.60;64.90
68217;DHT22;55037;52.354;4.992;2022-12-07T09:22:32;11.40;67.30
68217;DHT22;55037;52.354;4.992;2022-12-07T09:25:01;10.50;70.40
68217;DHT22;55037;52.354;4.992;2022-12-07T09:27:30;10.00;72.70
68217;DHT22;55037;52.354;4.992;2022-12-07T09:29:57;9.70;73.90
68217;DHT22;55037;52.354;4.992;2022-12-07T09:32:24;9.70;74.80
68217;DHT22;55037;52.354;4.992;2022-12-07T09:34:51;10.50;78.60
68217;DHT22;55037;52.354;4.992;2022-12-07T09:37:21;12.40;68.80
68217;DHT22;55037;52.354;4.992;2022-12-07T09:39:48;13.70;64.60
68217;DHT22;55037;52.354;4.992;2022-12-07T09:42:34;14.30;61.00
68217;DHT22;55037;52.354;4.992;2022-12-07T09:45:06;16.10;58.40
68217;DHT22;55037;52.354;4.992;2022-12-07T09:47:34;19.00;49.00
68217;DHT22;55037;52.354;4.992;2022-12-07T09:50:11;21.50;41.00
68217;DHT22;55037;52.354;4.992;2022-12-07T09:52:40;23.30;35.90
68217;DHT22;55037;52.354;4.992;2022-12-07T09:55:12;24.40;32.10
68217;DHT22;55037;52.354;4.992;2022-12-07T09:57:40;23.00;33.00
68217;DHT22;55037;52.354;4.992;2022-12-07T10:00:17;22.70;34.50
68217;DHT22;55037;52.354;4.992;2022-12-07T10:05:37;25.10;30.80
68217;DHT22;55037;52.354;4.992;2022-12-07T10:08:08;26.10;28.10
68217;DHT22;55037;52.354;4.992;2022-12-07T10:10:37;26.00;27.90
68217;DHT22;55037;52.354;4.992;2022-12-07T10:13:11;26.60;27.60
68217;DHT22;55037;52.354;4.992;2022-12-07T10:15:56;27.40;26.00
68217;DHT22;55037;52.354;4.992;2022-12-07T10:18:41;24.90;26.90
68217;DHT22;55037;52.354;4.992;2022-12-07T10:26:51;14.60;45.00
68217;DHT22;55037;52.354;4.992;2022-12-07T10:29:23;12.90;51.40
68217;DHT22;55037;52.354;4.992;2022-12-07T10:31:57;12.00;55.90
68217;DHT22;55037;52.354;4.992;2022-12-07T10:34:34;11.50;59.20
68217;DHT22;55037;52.354;4.992;2022-12-07T10:37:19;11.30;61.20
68217;DHT22;55037;52.354;4.992;2022-12-07T10:39:54;11.80;62.20
68217;DHT22;55037;52.354;4.992;2022-12-07T10:42:24;13.00;57.60
68217;DHT22;55037;52.354;4.992;2022-12-07T10:45:21;13.30;56.40
68217;DHT22;55037;52.354;4.992;2022-12-07T10:47:57;14.60;53.60
68217;DHT22;55037;52.354;4.992;2022-12-07T11:05:17;27.60;24.80
68217;DHT22;55037;52.354;4.992;2022-12-07T11:08:02;28.70;23.40
68217;DHT22;55037;52.354;4.992;2022-12-07T11:10:45;29.30;22.40
68217;DHT22;55037;52.354;4.992;2022-12-07T11:22:06;29.10;21.90
68217;DHT22;55037;52.354;4.992;2022-12-07T11:24:40;29.50;21.50
68217;DHT22;55037;52.354;4.992;2022-12-07T11:27:34;30.00;21.10
68217;DHT22;55037;52.354;4.992;2022-12-07T11:30:12;30.30;20.30
68217;DHT22;55037;52.354;4.992;2022-12-07T11:33:02;30.30;20.60
68217;DHT22;55037;52.354;4.992;2022-12-07T11:36:14;29.80;20.00
68217;DHT22;55037;52.354;4.992;2022-12-07T11:38:50;27.40;21.70
68217;DHT22;55037;52.354;4.992;2022-12-07T11:41:25;23.30;26.60
68217;DHT22;55037;52.354;4.992;2022-12-07T11:46:33;25.50;24.90
68217;DHT22;55037;52.354;4.992;2022-12-07T11:51:52;22.10;28.40
68217;DHT22;55037;52.354;4.992;2022-12-07T11:54:26;20.40;31.10
68217;DHT22;55037;52.354;4.992;2022-12-07T11:56:56;17.20;37.40
68217;DHT22;55037;52.354;4.992;2022-12-07T11:59:48;14.10;45.80
68217;DHT22;55037;52.354;4.992;2022-12-07T12:02:23;11.70;54.80
68217;DHT22;55037;52.354;4.992;2022-12-07T12:05:21;10.20;63.60
68217;DHT22;55037;52.354;4.992;2022-12-07T12:13:39;19.30;50.00
68217;DHT22;55037;52.354;4.992;2022-12-07T12:19:33;25.30;31.90
68217;DHT22;55037;52.354;4.992;2022-12-07T12:22:16;27.00;29.70
68217;DHT22;55037;52.354;4.992;2022-12-07T12:24:48;28.30;28.20
68217;DHT22;55037;52.354;4.992;2022-12-07T12:27:26;29.70;27.20
68217;DHT22;55037;52.354;4.992;2022-12-07T12:29:57;30.60;24.70
68217;DHT22;55037;52.354;4.992;2022-12-07T12:32:39;31.20;23.80
68217;DHT22;55037;52.354;4.992;2022-12-07T12:35:35;32.00;22.00
68217;DHT22;55037;52.354;4.992;2022-12-07T12:38:30;32.50;20.50
68217;DHT22;55037;52.354;4.992;2022-12-07T12:40:59;32.70;19.90
68217;DHT22;55037;52.354;4.992;2022-12-07T12:43:47;31.80;19.80
68217;DHT22;55037;52.354;4.992;2022-12-07T12:51:56;21.10;27.20
68217;DHT22;55037;52.354;4.992;2022-12-07T12:54:32;17.90;31.40
68217;DHT22;55037;52.354;4.992;2022-12-07T12:59:36;13.90;41.60
68217;DHT22;55037;52.354;4.992;2022-12-07T13:15:42;11.10;59.00
68217;DHT22;55037;52.354;4.992;2022-12-07T13:18:36;11.10;57.10
68217;DHT22;55037;52.354;4.992;2022-12-07T13:26:26;10.70;58.70
68217;DHT22;55037;52.354;4.992;2022-12-07T13:29:19;11.30;57.00
68217;DHT22;55037;52.354;4.992;2022-12-07T13:31:52;11.40;54.80
68217;DHT22;55037;52.354;4.992;2022-12-07T13:34:37;11.50;53.90
68217;DHT22;55037;52.354;4.992;2022-12-07T13:37:12;11.30;54.50
68217;DHT22;55037;52.354;4.992;2022-12-07T13:39:50;10.90;55.60
68217;DHT22;55037;52.354;4.992;2022-12-07T13:42:33;10.70;57.50
68217;DHT22;55037;52.354;4.992;2022-12-07T13:48:24;10.60;58.60
68217;DHT22;55037;52.354;4.992;2022-12-07T13:50:58;10.60;58.90
68217;DHT22;55037;52.354;4.992;2022-12-07T13:53:25;10.70;58.40
68217;DHT22;55037;52.354;4.992;2022-12-07T13:55:58;10.60;58.10
68217;DHT22;55037;52.354;4.992;2022-12-07T13:58:29;10.50;59.30
68217;DHT22;55037;52.354;4.992;2022-12-07T14:00:57;10.50;59.10
68217;DHT22;55037;52.354;4.992;2022-12-07T14:03:35;10.60;59.40
68217;DHT22;55037;52.354;4.992;2022-12-07T14:06:26;10.60;59.90
68217;DHT22;55037;52.354;4.992;2022-12-07T14:11:45;10.30;62.50
68217;DHT22;55037;52.354;4.992;2022-12-07T14:14:20;9.70;64.10
68217;DHT22;55037;52.354;4.992;2022-12-07T14:17:17;9.20;66.50
68217;DHT22;55037;52.354;4.992;2022-12-07T14:19:49;8.80;69.50
68217;DHT22;55037;52.354;4.992;2022-12-07T14:22:27;8.60;71.30
68217;DHT22;55037;52.354;4.992;2022-12-07T14:25:22;8.60;72.10
68217;DHT22;55037;52.354;4.992;2022-12-07T14:30:20;8.40;72.00
68217;DHT22;55037;52.354;4.992;2022-12-07T14:32:53;8.20;72.40
68217;DHT22;55037;52.354;4.992;2022-12-07T14:35:21;8.00;73.20
68217;DHT22;55037;52.354;4.992;2022-12-07T14:37:49;7.90;74.10
68217;DHT22;55037;52.354;4.992;2022-12-07T14:40:28;7.80;73.60
68217;DHT22;55037;52.354;4.992;2022-12-07T14:43:16;7.80;74.60
68217;DHT22;55037;52.354;4.992;2022-12-07T14:45:43;7.80;75.10
68217;DHT22;55037;52.354;4.992;2022-12-07T14:48:12;7.70;75.50
68217;DHT22;55037;52.354;4.992;2022-12-07T14:51:00;7.80;76.00
68217;DHT22;55037;52.354;4.992;2022-12-07T14:53:50;7.70;76.40
68217;DHT22;55037;52.354;4.992;2022-12-07T14:56:24;7.60;76.40
68217;DHT22;55037;52.354;4.992;2022-12-07T14:58:51;7.50;78.10
68217;DHT22;55037;52.354;4.992;2022-12-07T15:01:19;7.50;77.40
68217;DHT22;55037;52.354;4.992;2022-12-07T15:03:46;7.50;78.00
68217;DHT22;55037;52.354;4.992;2022-12-07T15:06:15;7.50;78.30
68217;DHT22;55037;52.354;4.992;2022-12-07T15:08:44;7.40;77.60
68217;DHT22;55037;52.354;4.992;2022-12-07T15:11:15;7.40;76.90
68217;DHT22;55037;52.354;4.992;2022-12-07T15:13:43;7.40;76.40
68217;DHT22;55037;52.354;4.992;2022-12-07T15:16:29;7.40;75.70
68217;DHT22;55037;52.354;4.992;2022-12-07T15:19:19;7.40;74.90
68217;DHT22;55037;52.354;4.992;2022-12-07T15:21:56;7.30;74.50
68217;DHT22;55037;52.354;4.992;2022-12-07T15:24:24;7.20;74.80
68217;DHT22;55037;52.354;4.992;2022-12-07T15:26:51;7.20;75.10
68217;DHT22;55037;52.354;4.992;2022-12-07T15:29:19;7.20;75.30
68217;DHT22;55037;52.354;4.992;2022-12-07T15:31:50;7.20;75.40
68217;DHT22;55037;52.354;4.992;2022-12-07T15:34:26;7.20;75.50
68217;DHT22;55037;52.354;4.992;2022-12-07T15:37:02;7.20;75.80
68217;DHT22;55037;52.354;4.992;2022-12-07T15:39:29;7.20;76.20
68217;DHT22;55037;52.354;4.992;2022-12-07T15:41:56;7.10;76.30
68217;DHT22;55037;52.354;4.992;2022-12-07T15:44:24;7.10;76.50
68217;DHT22;55037;52.354;4.992;2022-12-07T15:47:09;7.10;76.80
68217;DHT22;55037;52.354;4.992;2022-12-07T15:49:37;7.10;77.20
68217;DHT22;55037;52.354;4.992;2022-12-07T15:52:04;7.10;77.40
68217;DHT22;55037;52.354;4.992;2022-12-07T15:54:31;7.10;78.00
68217;DHT22;55037;52.354;4.992;2022-12-07T15:56:59;7.10;78.00
68217;DHT22;55037;52.354;4.992;2022-12-07T15:59:27;7.10;78.10
68217;DHT22;55037;52.354;4.992;2022-12-07T16:01:55;7.10;78.30
68217;DHT22;55037;52.354;4.992;2022-12-07T16:04:23;7.10;78.50
68217;DHT22;55037;52.354;4.992;2022-12-07T16:06:50;7.10;78.80
68217;DHT22;55037;52.354;4.992;2022-12-07T16:09:18;7.10;79.10
68217;DHT22;55037;52.354;4.992;2022-12-07T16:11:46;7.10;79.10
68217;DHT22;55037;52.354;4.992;2022-12-07T16:14:13;7.10;79.10
68217;DHT22;55037;52.354;4.992;2022-12-07T16:16:40;7.20;79.10
68217;DHT22;55037;52.354;4.992;2022-12-07T16:19:09;7.20;79.10
68217;DHT22;55037;52.354;4.992;2022-12-07T16:21:37;7.10;79.20
68217;DHT22;55037;52.354;4.992;2022-12-07T16:24:05;7.20;79.20
68217;DHT22;55037;52.354;4.992;2022-12-07T16:26:33;7.20;79.30
68217;DHT22;55037;52.354;4.992;2022-12-07T16:29:00;7.30;79.50
68217;DHT22;55037;52.354;4.992;2022-12-07T16:31:27;7.30;79.20
68217;DHT22;55037;52.354;4.992;2022-12-07T16:33:56;7.30;79.10
68217;DHT22;55037;52.354;4.992;2022-12-07T16:36:25;7.30;79.20
68217;DHT22;55037;52.354;4.992;2022-12-07T16:39:14;7.40;78.40
68217;DHT22;55037;52.354;4.992;2022-12-07T16:41:41;7.40;79.20
68217;DHT22;55037;52.354;4.992;2022-12-07T16:44:10;7.50;79.60
68217;DHT22;55037;52.354;4.992;2022-12-07T16:46:39;7.60;79.60
68217;DHT22;55037;52.354;4.992;2022-12-07T16:49:09;7.70;78.50
68217;DHT22;55037;52.354;4.992;2022-12-07T16:51:37;7.70;79.20
68217;DHT22;55037;52.354;4.992;2022-12-07T16:54:05;7.80;79.00
68217;DHT22;55037;52.354;4.992;2022-12-07T16:56:32;7.70;78.70
68217;DHT22;55037;52.354;4.992;2022-12-07T16:59:00;7.60;79.20
68217;DHT22;55037;52.354;4.992;2022-12-07T17:01:28;7.50;79.10
68217;DHT22;55037;52.354;4.992;2022-12-07T17:03:57;7.40;78.90
68217;DHT22;55037;52.354;4.992;2022-12-07T17:06:27;7.20;78.40
68217;DHT22;55037;52.354;4.992;2022-12-07T17:08:56;7.00;78.80
68217;DHT22;55037;52.354;4.992;2022-12-07T17:11:28;6.90;79.10
68217;DHT22;55037;52.354;4.992;2022-12-07T17:13:57;6.80;80.30
68217;DHT22;55037;52.354;4.992;2022-12-07T17:16:43;6.80;79.90
68217;DHT22;55037;52.354;4.992;2022-12-07T17:19:13;6.80;80.20
68217;DHT22;55037;52.354;4.992;2022-12-07T17:21:41;6.80;80.30
68217;DHT22;55037;52.354;4.992;2022-12-07T17:24:11;6.80;80.20
68217;DHT22;55037;52.354;4.992;2022-12-07T17:26:39;6.70;80.30
68217;DHT22;55037;52.354;4.992;2022-12-07T17:29:07;6.70;79.70
68217;DHT22;55037;52.354;4.992;2022-12-07T17:31:36;6.70;79.70
68217;DHT22;55037;52.354;4.992;2022-12-07T17:34:03;6.70;80.20
68217;DHT22;55037;52.354;4.992;2022-12-07T17:36:31;6.70;80.30
68217;DHT22;55037;52.354;4.992;2022-12-07T17:38:59;6.60;80.20
68217;DHT22;55037;52.354;4.992;2022-12-07T17:41:27;6.60;80.20
68217;DHT22;55037;52.354;4.992;2022-12-07T17:44:16;6.60;80.30
68217;DHT22;55037;52.354;4.992;2022-12-07T17:46:45;6.40;80.30
68217;DHT22;55037;52.354;4.992;2022-12-07T17:49:13;6.40;80.00
68217;DHT22;55037;52.354;4.992;2022-12-07T17:51:41;6.40;80.90
68217;DHT22;55037;52.354;4.992;2022-12-07T17:54:28;6.30;81.30
68217;DHT22;55037;52.354;4.992;2022-12-07T17:56:55;6.40;82.50
68217;DHT22;55037;52.354;4.992;2022-12-07T17:59:23;6.40;81.00
68217;DHT22;55037;52.354;4.992;2022-12-07T18:01:50;6.40;81.80
68217;DHT22;55037;52.354;4.992;2022-12-07T18:04:18;6.50;81.80
68217;DHT22;55037;52.354;4.992;2022-12-07T18:06:45;6.50;81.70
68217;DHT22;55037;52.354;4.992;2022-12-07T18:09:18;6.50;80.80